createdAt,value
2024-03-23T00:02:05.034Z,25.10
2024-03-23T00:05:15.982Z,25.20
2024-03-23T00:08:31.414Z,25.20
2024-03-23T00:11:46.162Z,25.30
2024-03-23T00:14:58.921Z,25.30
2024-03-23T00:18:12.375Z,25.30
2024-03-23T00:21:23.801Z,25.10
2024-03-23T00:24:35.312Z,25.00
2024-03-23T00:27:47.349Z,24.90
2024-03-23T00:31:00.663Z,24.70
2024-03-23T00:34:14.832Z,24.50
2024-03-23T00:37:27.062Z,24.40
2024-03-23T00:40:37.526Z,24.30
2024-03-23T00:43:51.772Z,24.20
2024-03-23T00:47:05.402Z,24.20
2024-03-23T00:50:15.591Z,24.20
2024-03-23T00:53:28.263Z,24.20
2024-03-23T00:56:38.979Z,24.10
2024-03-23T00:59:51.310Z,24.00
2024-03-23T01:03:00.725Z,24.00
2024-03-23T01:06:14.921Z,24.00
2024-03-23T01:09:25.637Z,23.90
2024-03-23T01:12:36.977Z,23.90
2024-03-23T01:15:50.391Z,23.80
2024-03-23T01:19:02.623Z,23.80
2024-03-23T01:22:12.255Z,23.80
2024-03-23T01:25:22.202Z,23.70
2024-03-23T01:28:31.733Z,23.70
2024-03-23T01:31:42.577Z,23.60
2024-03-23T01:34:55.481Z,23.60
2024-03-23T01:38:08.011Z,23.60
2024-03-23T01:41:20.120Z,23.60
2024-03-23T01:44:29.115Z,23.60
2024-03-23T01:47:40.370Z,23.50
2024-03-23T01:50:51.647Z,23.50
2024-03-23T01:54:02.924Z,23.40
2024-03-23T01:57:12.693Z,23.40
2024-03-23T02:00:23.518Z,23.40
2024-03-23T02:03:34.647Z,23.30
2024-03-23T02:06:47.264Z,23.30
2024-03-23T02:09:59.636Z,23.30
2024-03-23T02:13:09.740Z,23.20
2024-03-23T02:16:19.571Z,23.20
2024-03-23T02:19:29.426Z,23.20
2024-03-23T02:22:44.280Z,23.20
2024-03-23T02:25:55.532Z,23.10
2024-03-23T02:29:05.512Z,23.20
2024-03-23T02:32:16.809Z,23.40
2024-03-23T02:35:44.061Z,23.60
2024-03-23T02:38:58.141Z,23.80
2024-03-23T02:42:10.033Z,24.00
2024-03-23T02:45:21.317Z,24.10
2024-03-23T02:48:30.502Z,24.10
2024-03-23T02:51:43.066Z,24.00
2024-03-23T02:54:55.142Z,23.90
2024-03-23T02:58:06.840Z,23.70
2024-03-23T03:01:17.961Z,23.70
2024-03-23T03:04:30.214Z,23.60
2024-03-23T03:07:41.771Z,23.50
2024-03-23T03:10:55.158Z,23.50
2024-03-23T03:14:05.190Z,23.40
2024-03-23T03:17:18.363Z,23.40
2024-03-23T03:20:29.880Z,23.30
2024-03-23T03:23:42.363Z,23.30
2024-03-23T03:26:52.236Z,23.30
2024-03-23T03:30:03.543Z,23.20
2024-03-23T03:33:13.073Z,23.10
2024-03-23T03:36:22.965Z,23.10
2024-03-23T03:39:32.207Z,23.10
2024-03-23T03:42:42.649Z,23.10
2024-03-23T03:45:59.160Z,23.00
2024-03-23T03:49:10.559Z,23.00
2024-03-23T03:52:22.517Z,23.00
2024-03-23T03:55:34.390Z,22.90
2024-03-23T03:58:42.723Z,22.90
2024-03-23T04:01:53.638Z,22.90
2024-03-23T04:05:02.750Z,22.90
2024-03-23T04:08:12.143Z,22.80
2024-03-23T04:11:26.223Z,22.80
2024-03-23T04:14:36.548Z,22.70
2024-03-23T04:17:46.808Z,22.70
2024-03-23T04:20:55.333Z,22.70
2024-03-23T04:24:04.834Z,22.70
2024-03-23T04:27:17.068Z,22.70
2024-03-23T04:30:27.556Z,22.70
2024-03-23T04:33:40.825Z,22.60
2024-03-23T04:36:48.587Z,22.60
2024-03-23T04:39:59.327Z,22.60
2024-03-23T04:43:10.616Z,22.60
2024-03-23T04:46:20.989Z,22.60
2024-03-23T04:49:29.645Z,22.50
2024-03-23T04:52:41.442Z,22.50
2024-03-23T04:55:51.161Z,22.50
2024-03-23T04:59:03.913Z,22.40
2024-03-23T05:02:14.675Z,22.40
2024-03-23T05:05:26.325Z,22.40
2024-03-23T05:08:33.707Z,22.40
2024-03-23T05:11:43.853Z,22.40
2024-03-23T05:14:55.135Z,22.40
2024-03-23T05:18:06.486Z,22.40
2024-03-23T05:21:16.927Z,22.30
2024-03-23T05:24:27.256Z,22.30
2024-03-23T05:27:38.610Z,22.30
2024-03-23T05:30:48.390Z,22.30
2024-03-23T05:33:57.880Z,22.50
2024-03-23T05:37:09.438Z,22.80
2024-03-23T05:40:19.126Z,23.00
2024-03-23T05:43:30.398Z,23.20
2024-03-23T05:46:41.411Z,23.30
2024-03-23T05:49:54.185Z,23.40
2024-03-23T05:53:07.277Z,23.60
2024-03-23T05:56:17.990Z,23.70
2024-03-23T05:59:29.392Z,23.70
2024-03-23T06:02:38.017Z,23.80
2024-03-23T06:05:47.245Z,23.80
2024-03-23T06:08:58.301Z,23.90
2024-03-23T06:12:08.700Z,23.90
2024-03-23T06:15:21.371Z,23.80
2024-03-23T06:18:30.221Z,23.60
2024-03-23T06:21:40.018Z,23.40
2024-03-23T06:24:52.137Z,23.30
2024-03-23T06:28:03.185Z,23.20
2024-03-23T06:31:16.055Z,23.10
2024-03-23T06:34:29.393Z,23.10
2024-03-23T06:37:41.227Z,23.00
2024-03-23T06:40:54.764Z,23.00
2024-03-23T06:44:06.771Z,22.90
2024-03-23T06:47:19.239Z,22.90
2024-03-23T06:50:30.509Z,22.80
2024-03-23T06:53:42.659Z,22.80
2024-03-23T06:56:53.868Z,22.70
2024-03-23T07:00:05.902Z,22.70
2024-03-23T07:03:17.849Z,22.70
2024-03-23T07:06:27.819Z,22.70
2024-03-23T07:09:36.904Z,22.60
2024-03-23T07:12:47.708Z,22.60
2024-03-23T07:16:02.505Z,22.60
2024-03-23T07:19:14.823Z,22.50
2024-03-23T07:22:26.562Z,22.40
2024-03-23T07:25:38.126Z,22.50
2024-03-23T07:28:48.662Z,22.50
2024-03-23T07:32:01.508Z,22.60
2024-03-23T07:35:13.238Z,22.90
2024-03-23T07:38:24.604Z,23.10
2024-03-23T07:41:34.135Z,23.20
2024-03-23T07:44:43.473Z,23.30
2024-03-23T07:47:53.300Z,23.40
2024-03-23T07:51:10.976Z,23.50
2024-03-23T07:54:22.495Z,23.60
2024-03-23T07:57:33.754Z,23.70
2024-03-23T08:00:42.616Z,23.80
2024-03-23T08:03:55.629Z,23.80
2024-03-23T08:07:08.253Z,23.80
2024-03-23T08:10:20.474Z,23.70
2024-03-23T08:13:30.264Z,23.60
2024-03-23T08:16:44.096Z,23.50
2024-03-23T08:19:57.658Z,23.30
2024-03-23T08:26:26.071Z,23.00
2024-03-23T08:29:35.871Z,22.90
2024-03-23T08:32:43.285Z,22.80
2024-03-23T08:36:02.969Z,22.70
2024-03-23T08:39:20.713Z,22.70
2024-03-23T08:42:26.284Z,22.70
2024-03-23T08:45:35.198Z,22.60
2024-03-23T08:48:46.080Z,22.60
2024-03-23T08:51:54.669Z,22.60
2024-03-23T08:55:06.169Z,22.50
2024-03-23T08:58:19.410Z,22.50
2024-03-23T09:01:32.336Z,22.50
2024-03-23T09:04:43.515Z,22.40
2024-03-23T09:07:55.190Z,22.40
2024-03-23T09:11:10.466Z,22.40
2024-03-23T09:14:19.326Z,22.50
2024-03-23T09:17:30.942Z,22.70
2024-03-23T09:20:42.275Z,22.90
2024-03-23T09:23:53.486Z,23.10
2024-03-23T09:27:03.396Z,23.20
2024-03-23T09:30:18.978Z,23.30
2024-03-23T09:33:31.714Z,23.40
2024-03-23T09:36:45.244Z,23.50
2024-03-23T09:39:55.687Z,23.60
2024-03-23T09:43:03.080Z,23.60
2024-03-23T09:46:15.406Z,23.80
2024-03-23T09:49:25.101Z,23.70
2024-03-23T09:52:37.024Z,23.70
2024-03-23T09:55:47.163Z,23.70
2024-03-23T09:59:00.657Z,23.50
2024-03-23T10:02:15.067Z,23.40
2024-03-23T10:05:34.528Z,23.30
2024-03-23T10:08:39.833Z,23.20
2024-03-23T10:11:52.393Z,23.00
2024-03-23T10:15:02.738Z,22.90
2024-03-23T10:18:18.325Z,22.80
2024-03-23T10:21:27.041Z,22.80
2024-03-23T10:24:38.463Z,22.70
2024-03-23T10:27:47.862Z,22.70
2024-03-23T10:30:59.227Z,22.60
2024-03-23T10:34:11.394Z,22.60
2024-03-23T10:37:22.529Z,22.50
2024-03-23T10:40:34.143Z,22.50
2024-03-23T10:43:43.930Z,22.50
2024-03-23T10:46:54.006Z,22.50
2024-03-23T10:50:06.073Z,22.40
2024-03-23T10:53:16.854Z,22.40
2024-03-23T10:56:28.727Z,22.60
2024-03-23T10:59:37.871Z,22.90
2024-03-23T11:02:49.783Z,23.00
2024-03-23T11:05:59.988Z,23.10
2024-03-23T11:09:12.087Z,23.20
2024-03-23T11:12:39.769Z,23.30
2024-03-23T11:15:51.814Z,23.40
2024-03-23T11:19:20.161Z,23.60
2024-03-23T11:22:46.323Z,23.60
2024-03-23T11:25:59.483Z,23.70
2024-03-23T11:29:20.194Z,23.80
2024-03-23T11:32:32.397Z,23.90
2024-03-23T11:35:43.000Z,23.90
2024-03-23T11:38:52.635Z,24.00
2024-03-23T11:42:03.159Z,24.10
2024-03-23T11:45:18.330Z,24.10
2024-03-23T11:48:29.171Z,24.20
2024-03-23T11:51:39.429Z,24.20
2024-03-23T11:54:50.700Z,24.30
2024-03-23T11:57:59.998Z,24.40
2024-03-23T12:01:12.443Z,24.40
2024-03-23T12:04:31.254Z,24.50
2024-03-23T12:07:42.469Z,24.50
2024-03-23T12:10:54.799Z,24.60
2024-03-23T12:14:04.744Z,24.70
2024-03-23T12:17:19.245Z,24.70
2024-03-23T12:20:31.653Z,24.70
2024-03-23T12:23:43.528Z,24.80
2024-03-23T12:26:56.428Z,24.80
2024-03-23T12:30:49.344Z,24.70
2024-03-23T12:34:00.354Z,24.70
2024-03-23T12:37:15.754Z,24.60
2024-03-23T12:40:26.168Z,24.60
2024-03-23T12:43:39.322Z,24.50
2024-03-23T12:46:48.206Z,24.50
2024-03-23T12:49:59.634Z,24.40
2024-03-23T12:53:14.452Z,24.30
2024-03-23T12:56:23.075Z,24.20
2024-03-23T12:59:34.244Z,24.20
2024-03-23T13:02:43.347Z,24.20
2024-03-23T13:06:00.157Z,24.30
2024-03-23T13:09:12.790Z,24.30
2024-03-23T13:12:21.956Z,24.40
2024-03-23T13:15:31.598Z,24.50
2024-03-23T13:18:43.760Z,24.50
2024-03-23T13:21:53.319Z,24.50
2024-03-23T13:25:05.924Z,24.50
2024-03-23T13:28:14.953Z,24.50
2024-03-23T13:31:26.966Z,24.50
2024-03-23T13:34:37.337Z,24.60
2024-03-23T13:37:48.522Z,24.50
2024-03-23T13:40:58.984Z,24.60
2024-03-23T13:44:08.522Z,24.60
2024-03-23T13:47:18.286Z,24.70
2024-03-23T13:50:28.850Z,24.80
2024-03-23T13:53:38.425Z,24.80
2024-03-23T13:56:49.893Z,24.90
2024-03-23T13:59:57.775Z,24.90
2024-03-23T14:03:07.840Z,24.90
2024-03-23T14:06:30.002Z,24.90
2024-03-23T14:09:40.135Z,24.90
2024-03-23T14:12:50.028Z,25.10
2024-03-23T14:16:00.982Z,25.10
2024-03-23T14:19:11.683Z,25.30
2024-03-23T14:22:26.456Z,25.40
2024-03-23T14:25:38.016Z,25.50
2024-03-23T14:28:47.481Z,25.50
2024-03-23T14:31:56.557Z,25.60
2024-03-23T14:35:09.559Z,25.60
2024-03-23T14:38:21.904Z,25.70
2024-03-23T14:41:31.969Z,25.70
2024-03-23T14:44:40.698Z,25.70
2024-03-23T14:47:49.884Z,25.70
2024-03-23T14:51:02.450Z,25.70
2024-03-23T14:54:16.748Z,25.70
2024-03-23T14:57:23.704Z,25.70
2024-03-23T15:00:35.920Z,25.80
2024-03-23T15:03:47.071Z,25.80
2024-03-23T15:06:57.649Z,25.90
2024-03-23T15:10:10.424Z,25.90
2024-03-23T15:13:22.739Z,25.90
2024-03-23T15:16:32.509Z,25.90
2024-03-23T15:19:43.372Z,25.90
2024-03-23T15:22:54.451Z,25.90
2024-03-23T15:26:04.357Z,25.90
2024-03-23T15:29:18.193Z,25.90
2024-03-23T15:32:28.689Z,25.90
2024-03-23T15:35:38.687Z,25.90
2024-03-23T15:38:46.928Z,25.80
2024-03-23T15:41:56.668Z,25.80
2024-03-23T15:45:11.715Z,25.80
2024-03-23T15:48:23.463Z,25.80
2024-03-23T15:51:35.109Z,25.90
2024-03-23T15:54:46.305Z,25.90
2024-03-23T15:57:55.232Z,25.90
2024-03-23T16:01:08.636Z,25.90
2024-03-23T16:04:18.191Z,25.90
2024-03-23T16:07:30.411Z,25.90
2024-03-23T16:10:43.078Z,25.90
2024-03-23T16:13:53.401Z,25.80
2024-03-23T16:17:02.225Z,25.80
2024-03-23T16:20:15.916Z,25.80
2024-03-23T16:23:25.843Z,25.80
2024-03-23T16:26:36.044Z,25.80
2024-03-23T16:29:48.006Z,25.80
2024-03-23T16:32:58.027Z,25.80
2024-03-23T16:36:07.657Z,25.90
2024-03-23T16:39:19.372Z,25.90
2024-03-23T16:42:30.874Z,25.80
2024-03-23T16:45:39.831Z,25.80
2024-03-23T16:48:52.406Z,25.80
2024-03-23T16:52:05.494Z,25.70
2024-03-23T16:55:16.548Z,25.70
2024-03-23T16:58:27.158Z,25.70
2024-03-23T17:01:37.039Z,25.70
2024-03-23T17:04:49.455Z,25.70
2024-03-23T17:08:01.242Z,25.60
2024-03-23T17:11:13.781Z,25.60
2024-03-23T17:14:24.432Z,25.60
2024-03-23T17:17:33.730Z,25.60
2024-03-23T17:20:47.114Z,25.60
2024-03-23T17:23:59.414Z,25.60
2024-03-23T17:27:15.027Z,25.50
2024-03-23T17:30:28.337Z,25.50
2024-03-23T17:33:38.982Z,25.50
2024-03-23T17:36:51.868Z,25.50
2024-03-23T17:40:01.362Z,25.50
2024-03-23T17:43:12.628Z,25.40
2024-03-23T17:46:25.360Z,25.40
2024-03-23T17:49:37.529Z,25.30
2024-03-23T17:52:49.691Z,25.40
2024-03-23T17:56:00.341Z,25.30
2024-03-23T17:59:10.607Z,25.30
2024-03-23T18:02:23.903Z,25.20
2024-03-23T18:05:37.022Z,25.20
2024-03-23T18:08:47.657Z,25.10
2024-03-23T18:12:00.692Z,25.10
2024-03-23T18:15:16.733Z,25.10
2024-03-23T18:18:28.574Z,25.10
2024-03-23T18:21:42.200Z,25.10
2024-03-23T18:24:53.710Z,25.00
2024-03-23T18:31:07.407Z,25.00
2024-03-23T18:34:20.642Z,25.00
2024-03-23T18:39:32.942Z,24.90
2024-03-23T18:42:45.317Z,24.90
2024-03-23T18:45:54.767Z,24.90
2024-03-23T18:49:06.358Z,24.90
2024-03-23T18:52:15.546Z,24.90
2024-03-23T18:55:25.209Z,24.80
2024-03-23T18:58:37.307Z,24.70
2024-03-23T19:01:49.137Z,24.70
2024-03-23T19:04:58.430Z,24.70
2024-03-23T19:08:10.845Z,24.70
2024-03-23T19:11:21.633Z,24.70
2024-03-23T19:14:33.430Z,24.60
2024-03-23T19:17:42.182Z,24.60
2024-03-23T19:20:55.936Z,24.60
2024-03-23T19:24:07.394Z,24.50
2024-03-23T19:27:19.801Z,24.40
2024-03-23T19:30:29.292Z,24.40
2024-03-23T19:33:39.004Z,24.20
2024-03-23T19:36:49.461Z,24.10
2024-03-23T19:39:59.611Z,24.00
2024-03-23T19:43:09.039Z,23.90
2024-03-23T19:46:19.883Z,23.90
2024-03-23T19:49:31.770Z,23.90
2024-03-23T19:52:42.049Z,23.80
2024-03-23T19:56:02.238Z,23.80
2024-03-23T19:59:13.270Z,23.70
2024-03-23T20:02:25.455Z,23.70
2024-03-23T20:05:35.805Z,23.70
2024-03-23T20:08:45.612Z,23.70
2024-03-23T20:11:56.708Z,23.60
2024-03-23T20:15:09.391Z,23.50
2024-03-23T20:18:21.684Z,23.50
2024-03-23T20:21:31.483Z,23.40
2024-03-23T20:24:42.719Z,23.40
2024-03-23T20:27:51.787Z,23.40
2024-03-23T20:31:04.482Z,23.40
2024-03-23T20:34:15.503Z,23.40
2024-03-23T20:37:25.307Z,23.40
2024-03-23T20:40:34.352Z,23.30
2024-03-23T20:43:45.038Z,23.40
2024-03-23T20:46:55.374Z,23.30
2024-03-23T20:50:07.111Z,23.30
2024-03-23T20:53:19.347Z,23.30
2024-03-23T20:56:29.499Z,23.20
2024-03-23T20:59:40.850Z,23.20
2024-03-23T21:02:54.984Z,23.20
2024-03-23T21:06:09.263Z,23.10
2024-03-23T21:09:20.031Z,23.10
2024-03-23T21:12:31.136Z,23.10
2024-03-23T21:15:42.320Z,23.10
2024-03-23T21:18:56.922Z,23.10
2024-03-23T21:22:08.421Z,23.00
2024-03-23T21:25:18.736Z,23.00
2024-03-23T21:28:30.186Z,23.00
2024-03-23T21:31:42.559Z,23.00
2024-03-23T21:34:54.229Z,22.90
2024-03-23T21:38:03.737Z,22.90
2024-03-23T21:41:17.280Z,22.80
2024-03-23T21:44:28.791Z,22.90
2024-03-23T21:47:39.192Z,22.80
2024-03-23T21:50:49.654Z,22.80
2024-03-23T21:54:02.954Z,22.90
2024-03-23T21:57:14.006Z,22.80
2024-03-23T22:00:26.806Z,22.70
2024-03-23T22:03:37.285Z,22.70
2024-03-23T22:06:47.575Z,22.60
2024-03-23T22:09:55.321Z,22.60
2024-03-23T22:13:04.882Z,22.60
2024-03-23T22:16:18.431Z,22.60
2024-03-23T22:21:51.074Z,22.60
2024-03-23T22:25:02.870Z,22.70
2024-03-23T22:28:13.257Z,22.90
2024-03-23T22:31:22.824Z,23.00
2024-03-23T22:37:34.962Z,23.30
2024-03-23T22:40:45.269Z,23.50
2024-03-23T22:43:55.583Z,23.60
2024-03-23T22:47:05.970Z,23.70
2024-03-23T22:50:18.391Z,23.80
2024-03-23T22:53:27.092Z,23.90
2024-03-23T22:56:38.446Z,23.90
2024-03-23T22:59:49.380Z,24.00
2024-03-23T23:03:02.491Z,24.10
2024-03-23T23:09:29.985Z,24.20
2024-03-23T23:12:39.884Z,24.30
2024-03-23T23:15:53.650Z,24.30
2024-03-23T23:19:03.218Z,24.40
2024-03-23T23:22:14.826Z,24.40
2024-03-23T23:25:25.431Z,24.50
2024-03-23T23:28:38.100Z,24.50
2024-03-23T23:31:51.336Z,24.60
2024-03-23T23:34:59.499Z,24.70
2024-03-23T23:38:12.934Z,24.70
2024-03-23T23:41:22.953Z,24.80
2024-03-23T23:44:34.285Z,24.90
2024-03-23T23:47:45.888Z,24.90
2024-03-23T23:50:54.653Z,24.80
2024-03-23T23:54:04.545Z,24.80
2024-03-23T23:57:16.125Z,24.70
